sensor_id;sensor_type;location;lat;lon;timestamp;pressure;altitude;pressure_sealevel;temperature;humidity
63287;BME280;49410;55.708;37.522;2022-12-07T00:00:54;100609.47;;;-6.45;42.12
63287;BME280;49410;55.708;37.522;2022-12-07T00:03:20;100598.22;;;-6.56;41.64
63287;BME280;49410;55.708;37.522;2022-12-07T00:05:45;100607.84;;;-6.50;41.89
63287;BME280;49410;55.708;37.522;2022-12-07T00:08:11;100604.50;;;-6.59;41.79
63287;BME280;49410;55.708;37.522;2022-12-07T00:10:36;100605.47;;;-6.61;41.68
63287;BME280;49410;55.708;37.522;2022-12-07T00:13:02;100597.56;;;-6.66;42.17
63287;BME280;49410;55.708;37.522;2022-12-07T00:15:27;100597.38;;;-6.57;41.99
63287;BME280;49410;55.708;37.522;2022-12-07T00:17:53;100592.31;;;-6.67;42.49
63287;BME280;49410;55.708;37.522;2022-12-07T00:20:18;100587.94;;;-6.70;42.68
63287;BME280;49410;55.708;37.522;2022-12-07T00:22:44;100584.38;;;-6.69;42.68
63287;BME280;49410;55.708;37.522;2022-12-07T00:25:09;100584.06;;;-6.93;42.64
63287;BME280;49410;55.708;37.522;2022-12-07T00:27:35;100594.47;;;-6.83;42.83
63287;BME280;49410;55.708;37.522;2022-12-07T00:30:00;100599.44;;;-6.69;43.18
63287;BME280;49410;55.708;37.522;2022-12-07T00:32:26;100603.84;;;-6.67;43.47
63287;BME280;49410;55.708;37.522;2022-12-07T00:34:51;100585.47;;;-6.78;43.26
63287;BME280;49410;55.708;37.522;2022-12-07T00:37:17;100590.66;;;-6.72;42.58
63287;BME280;49410;55.708;37.522;2022-12-07T00:39:42;100603.97;;;-6.73;42.97
63287;BME280;49410;55.708;37.522;2022-12-07T00:42:08;100603.25;;;-6.80;43.01
63287;BME280;49410;55.708;37.522;2022-12-07T00:44:33;100619.06;;;-6.74;42.95
63287;BME280;49410;55.708;37.522;2022-12-07T00:46:59;100615.63;;;-6.77;43.18
63287;BME280;49410;55.708;37.522;2022-12-07T00:49:24;100608.72;;;-6.86;43.08
63287;BME280;49410;55.708;37.522;2022-12-07T00:51:50;100595.69;;;-6.97;43.05
63287;BME280;49410;55.708;37.522;2022-12-07T00:54:15;100600.75;;;-6.86;43.28
63287;BME280;49410;55.708;37.522;2022-12-07T00:56:41;100611.44;;;-6.88;43.21
63287;BME280;49410;55.708;37.522;2022-12-07T00:59:07;100609.91;;;-6.98;42.87
63287;BME280;49410;55.708;37.522;2022-12-07T01:01:35;100595.78;;;-7.02;43.12
63287;BME280;49410;55.708;37.522;2022-12-07T01:04:01;100602.03;;;-7.03;43.76
63287;BME280;49410;55.708;37.522;2022-12-07T01:06:28;100599.44;;;-7.06;43.25
63287;BME280;49410;55.708;37.522;2022-12-07T01:08:54;100607.47;;;-7.07;43.88
63287;BME280;49410;55.708;37.522;2022-12-07T01:11:21;100605.56;;;-7.02;43.17
63287;BME280;49410;55.708;37.522;2022-12-07T01:13:47;100584.13;;;-7.35;44.31
63287;BME280;49410;55.708;37.522;2022-12-07T01:16:15;100595.38;;;-7.22;44.23
63287;BME280;49410;55.708;37.522;2022-12-07T01:18:41;100582.16;;;-7.25;44.33
63287;BME280;49410;55.708;37.522;2022-12-07T01:21:27;100580.47;;;-7.28;44.11
63287;BME280;49410;55.708;37.522;2022-12-07T01:23:54;100557.75;;;-7.43;44.26
63287;BME280;49410;55.708;37.522;2022-12-07T01:26:22;100577.81;;;-7.29;44.86
63287;BME280;49410;55.708;37.522;2022-12-07T01:28:48;100593.53;;;-7.19;44.68
63287;BME280;49410;55.708;37.522;2022-12-07T01:31:14;100586.63;;;-7.27;44.16
63287;BME280;49410;55.708;37.522;2022-12-07T01:33:42;100576.09;;;-7.32;44.59
63287;BME280;49410;55.708;37.522;2022-12-07T01:36:16;100587.66;;;-7.33;43.68
63287;BME280;49410;55.708;37.522;2022-12-07T01:38:43;100571.00;;;-7.41;44.26
63287;BME280;49410;55.708;37.522;2022-12-07T01:41:09;100593.66;;;-7.25;44.61
63287;BME280;49410;55.708;37.522;2022-12-07T01:43:35;100584.19;;;-7.37;44.59
63287;BME280;49410;55.708;37.522;2022-12-07T01:46:02;100568.44;;;-7.46;43.58
63287;BME280;49410;55.708;37.522;2022-12-07T01:48:38;100572.59;;;-7.32;44.03
63287;BME280;49410;55.708;37.522;2022-12-07T01:51:09;100566.38;;;-7.33;43.70
63287;BME280;49410;55.708;37.522;2022-12-07T01:53:39;100572.47;;;-7.28;43.88
63287;BME280;49410;55.708;37.522;2022-12-07T01:56:10;100576.97;;;-7.30;43.57
63287;BME280;49410;55.708;37.522;2022-12-07T01:58:36;100570.75;;;-7.30;43.36
63287;BME280;49410;55.708;37.522;2022-12-07T02:01:02;100578.59;;;-7.24;43.53
63287;BME280;49410;55.708;37.522;2022-12-07T02:03:38;100568.88;;;-7.25;43.66
63287;BME280;49410;55.708;37.522;2022-12-07T02:06:05;100561.13;;;-7.36;44.63
63287;BME280;49410;55.708;37.522;2022-12-07T02:08:31;100568.19;;;-7.35;44.05
63287;BME280;49410;55.708;37.522;2022-12-07T02:10:57;100559.47;;;-7.40;44.49
63287;BME280;49410;55.708;37.522;2022-12-07T02:13:25;100560.16;;;-7.32;44.23
63287;BME280;49410;55.708;37.522;2022-12-07T02:18:49;100568.03;;;-7.27;45.17
63287;BME280;49410;55.708;37.522;2022-12-07T02:21:33;100568.19;;;-7.34;44.50
63287;BME280;49410;55.708;37.522;2022-12-07T02:27:17;100557.59;;;-7.37;44.42
63287;BME280;49410;55.708;37.522;2022-12-07T02:30:06;100558.47;;;-7.36;44.33
63287;BME280;49410;55.708;37.522;2022-12-07T02:35:18;100568.97;;;-7.30;44.06
63287;BME280;49410;55.708;37.522;2022-12-07T02:40:48;100521.75;;;-7.58;43.42
63287;BME280;49410;55.708;37.522;2022-12-07T02:43:19;100556.66;;;-7.32;44.70
63287;BME280;49410;55.708;37.522;2022-12-07T02:45:47;100544.63;;;-7.51;44.20
63287;BME280;49410;55.708;37.522;2022-12-07T02:48:16;100562.03;;;-7.37;44.62
63287;BME280;49410;55.708;37.522;2022-12-07T02:50:49;100553.47;;;-7.50;44.95
63287;BME280;49410;55.708;37.522;2022-12-07T02:53:37;100549.59;;;-7.35;43.38
63287;BME280;49410;55.708;37.522;2022-12-07T03:10:08;100563.44;;;-7.60;45.25
63287;BME280;49410;55.708;37.522;2022-12-07T03:13:00;100546.66;;;-7.62;44.88
63287;BME280;49410;55.708;37.522;2022-12-07T03:15:45;100556.53;;;-7.69;44.57
63287;BME280;49410;55.708;37.522;2022-12-07T03:18:13;100568.81;;;-7.63;45.47
63287;BME280;49410;55.708;37.522;2022-12-07T03:20:42;100559.97;;;-7.63;45.12
63287;BME280;49410;55.708;37.522;2022-12-07T03:23:10;100563.56;;;-7.66;45.74
63287;BME280;49410;55.708;37.522;2022-12-07T03:25:41;100557.44;;;-7.70;46.48
63287;BME280;49410;55.708;37.522;2022-12-07T03:28:10;100549.63;;;-7.76;46.19
63287;BME280;49410;55.708;37.522;2022-12-07T03:30:43;100523.56;;;-7.99;46.62
63287;BME280;49410;55.708;37.522;2022-12-07T03:33:21;100544.63;;;-7.91;46.01
63287;BME280;49410;55.708;37.522;2022-12-07T03:35:52;100545.50;;;-7.92;46.33
63287;BME280;49410;55.708;37.522;2022-12-07T03:38:28;100552.78;;;-8.01;46.25
63287;BME280;49410;55.708;37.522;2022-12-07T03:41:00;100497.41;;;-8.19;46.67
63287;BME280;49410;55.708;37.522;2022-12-07T03:43:30;100548.16;;;-7.91;46.25
63287;BME280;49410;55.708;37.522;2022-12-07T03:48:25;100539.16;;;-7.84;46.78
63287;BME280;49410;55.708;37.522;2022-12-07T03:51:06;100525.16;;;-7.92;46.05
63287;BME280;49410;55.708;37.522;2022-12-07T03:53:37;100541.03;;;-7.89;46.59
63287;BME280;49410;55.708;37.522;2022-12-07T03:56:06;100525.16;;;-7.92;46.96
63287;BME280;49410;55.708;37.522;2022-12-07T03:58:33;100536.81;;;-7.99;47.09
63287;BME280;49410;55.708;37.522;2022-12-07T04:00:59;100514.13;;;-8.16;46.82
63287;BME280;49410;55.708;37.522;2022-12-07T04:03:25;100512.22;;;-8.09;47.64
63287;BME280;49410;55.708;37.522;2022-12-07T04:05:50;100548.41;;;-8.03;47.20
63287;BME280;49410;55.708;37.522;2022-12-07T04:08:16;100532.75;;;-8.17;47.11
63287;BME280;49410;55.708;37.522;2022-12-07T04:10:41;100527.56;;;-8.23;47.96
63287;BME280;49410;55.708;37.522;2022-12-07T04:13:07;100539.03;;;-8.21;47.81
63287;BME280;49410;55.708;37.522;2022-12-07T04:15:32;100530.28;;;-8.27;48.94
63287;BME280;49410;55.708;37.522;2022-12-07T04:17:58;100546.13;;;-8.23;48.59
63287;BME280;49410;55.708;37.522;2022-12-07T04:20:23;100526.88;;;-8.33;48.80
63287;BME280;49410;55.708;37.522;2022-12-07T04:22:49;100547.03;;;-8.23;49.36
63287;BME280;49410;55.708;37.522;2022-12-07T04:25:14;100529.72;;;-8.44;49.38
63287;BME280;49410;55.708;37.522;2022-12-07T04:27:40;100542.94;;;-8.39;50.22
63287;BME280;49410;55.708;37.522;2022-12-07T04:30:06;100543.78;;;-8.39;50.30
63287;BME280;49410;55.708;37.522;2022-12-07T04:32:32;100541.19;;;-8.42;50.33
63287;BME280;49410;55.708;37.522;2022-12-07T04:34:57;100535.16;;;-8.49;50.46
63287;BME280;49410;55.708;37.522;2022-12-07T04:37:23;100526.38;;;-8.52;50.89
63287;BME280;49410;55.708;37.522;2022-12-07T04:39:49;100538.63;;;-8.45;50.89
63287;BME280;49410;55.708;37.522;2022-12-07T04:42:15;100527.34;;;-8.56;51.23
63287;BME280;49410;55.708;37.522;2022-12-07T04:44:41;100534.41;;;-8.55;51.53
63287;BME280;49410;55.708;37.522;2022-12-07T04:47:06;100530.06;;;-8.60;51.84
63287;BME280;49410;55.708;37.522;2022-12-07T04:49:32;100528.25;;;-8.57;51.66
63287;BME280;49410;55.708;37.522;2022-12-07T04:51:57;100531.66;;;-8.51;50.94
63287;BME280;49410;55.708;37.522;2022-12-07T04:54:23;100531.97;;;-8.68;52.40
63287;BME280;49410;55.708;37.522;2022-12-07T04:56:48;100530.22;;;-8.69;52.80
63287;BME280;49410;55.708;37.522;2022-12-07T04:59:15;100531.97;;;-8.69;52.46
63287;BME280;49410;55.708;37.522;2022-12-07T05:01:41;100518.03;;;-8.79;52.60
63287;BME280;49410;55.708;37.522;2022-12-07T05:04:08;100529.28;;;-8.65;52.64
63287;BME280;49410;55.708;37.522;2022-12-07T05:06:33;100526.72;;;-8.71;52.65
63287;BME280;49410;55.708;37.522;2022-12-07T05:08:59;100521.47;;;-8.74;53.17
63287;BME280;49410;55.708;37.522;2022-12-07T05:11:25;100526.91;;;-8.82;53.61
63287;BME280;49410;55.708;37.522;2022-12-07T05:14:09;100523.28;;;-8.76;53.55
63287;BME280;49410;55.708;37.522;2022-12-07T05:16:35;100533.97;;;-8.82;53.07
63287;BME280;49410;55.708;37.522;2022-12-07T05:19:01;100532.31;;;-8.86;53.79
63287;BME280;49410;55.708;37.522;2022-12-07T05:21:27;100539.13;;;-8.73;53.91
63287;BME280;49410;55.708;37.522;2022-12-07T05:23:52;100534.72;;;-8.72;53.99
63287;BME280;49410;55.708;37.522;2022-12-07T05:26:18;100531.25;;;-8.76;54.44
63287;BME280;49410;55.708;37.522;2022-12-07T05:28:44;100524.34;;;-8.88;54.48
63287;BME280;49410;55.708;37.522;2022-12-07T05:31:09;100539.94;;;-8.68;54.21
63287;BME280;49410;55.708;37.522;2022-12-07T05:33:35;100529.56;;;-8.82;54.93
63287;BME280;49410;55.708;37.522;2022-12-07T05:36:00;100534.88;;;-8.82;54.94
63287;BME280;49410;55.708;37.522;2022-12-07T05:38:31;100527.69;;;-8.75;54.96
63287;BME280;49410;55.708;37.522;2022-12-07T05:41:00;100536.47;;;-8.73;55.05
63287;BME280;49410;55.708;37.522;2022-12-07T05:43:26;100535.56;;;-8.72;55.48
63287;BME280;49410;55.708;37.522;2022-12-07T05:45:52;100515.50;;;-8.85;55.78
63287;BME280;49410;55.708;37.522;2022-12-07T05:48:17;100516.47;;;-8.91;55.63
63287;BME280;49410;55.708;37.522;2022-12-07T05:50:43;100526.97;;;-8.85;55.58
63287;BME280;49410;55.708;37.522;2022-12-07T05:53:08;100507.88;;;-9.06;56.65
63287;BME280;49410;55.708;37.522;2022-12-07T05:55:34;100518.31;;;-8.96;56.62
63287;BME280;49410;55.708;37.522;2022-12-07T05:57:59;100510.25;;;-8.88;56.30
63287;BME280;49410;55.708;37.522;2022-12-07T06:00:43;100526.13;;;-8.87;57.04
63287;BME280;49410;55.708;37.522;2022-12-07T06:03:09;100506.84;;;-8.97;56.60
63287;BME280;49410;55.708;37.522;2022-12-07T06:05:34;100504.91;;;-8.87;56.26
63287;BME280;49410;55.708;37.522;2022-12-07T06:08:00;100493.59;;;-8.97;56.85
63287;BME280;49410;55.708;37.522;2022-12-07T06:10:25;100511.06;;;-8.85;57.00
63287;BME280;49410;55.708;37.522;2022-12-07T06:12:50;100510.06;;;-8.79;56.80
63287;BME280;49410;55.708;37.522;2022-12-07T06:15:16;100519.75;;;-8.75;56.47
63287;BME280;49410;55.708;37.522;2022-12-07T06:17:41;100523.22;;;-8.73;57.30
63287;BME280;49410;55.708;37.522;2022-12-07T06:20:07;100520.59;;;-8.75;57.04
63287;BME280;49410;55.708;37.522;2022-12-07T06:22:33;100524.09;;;-8.72;56.74
63287;BME280;49410;55.708;37.522;2022-12-07T06:24:58;100518.97;;;-8.83;57.65
63287;BME280;49410;55.708;37.522;2022-12-07T06:27:24;100520.63;;;-8.78;57.37
63287;BME280;49410;55.708;37.522;2022-12-07T06:29:50;100516.31;;;-8.82;57.79
63287;BME280;49410;55.708;37.522;2022-12-07T06:32:16;100527.69;;;-8.75;58.11
63287;BME280;49410;55.708;37.522;2022-12-07T06:34:41;100507.28;;;-8.71;57.05
63287;BME280;49410;55.708;37.522;2022-12-07T06:37:07;100519.41;;;-8.58;56.96
63287;BME280;49410;55.708;37.522;2022-12-07T06:39:33;100515.84;;;-8.57;56.77
63287;BME280;49410;55.708;37.522;2022-12-07T06:41:58;100515.00;;;-8.57;57.25
63287;BME280;49410;55.708;37.522;2022-12-07T06:44:24;100529.91;;;-8.52;57.35
63287;BME280;49410;55.708;37.522;2022-12-07T06:46:51;100501.81;;;-8.64;57.20
63287;BME280;49410;55.708;37.522;2022-12-07T06:49:17;100524.44;;;-8.46;57.69
63287;BME280;49410;55.708;37.522;2022-12-07T06:51:42;100530.09;;;-8.61;58.24
63287;BME280;49410;55.708;37.522;2022-12-07T06:54:09;100509.81;;;-8.65;58.12
63287;BME280;49410;55.708;37.522;2022-12-07T06:56:35;100521.28;;;-8.63;58.05
63287;BME280;49410;55.708;37.522;2022-12-07T06:59:00;100527.31;;;-8.55;58.22
63287;BME280;49410;55.708;37.522;2022-12-07T07:01:26;100516.69;;;-8.55;58.12
63287;BME280;49410;55.708;37.522;2022-12-07T07:03:52;100514.09;;;-8.56;57.88
63287;BME280;49410;55.708;37.522;2022-12-07T07:06:17;100536.94;;;-8.49;57.96
63287;BME280;49410;55.708;37.522;2022-12-07T07:08:43;100523.75;;;-8.54;57.37
63287;BME280;49410;55.708;37.522;2022-12-07T07:11:09;100492.94;;;-8.61;57.04
63287;BME280;49410;55.708;37.522;2022-12-07T07:13:35;100517.50;;;-8.51;57.64
63287;BME280;49410;55.708;37.522;2022-12-07T07:16:01;100517.50;;;-8.50;57.27
63287;BME280;49410;55.708;37.522;2022-12-07T07:18:27;100526.06;;;-8.38;57.48
63287;BME280;49410;55.708;37.522;2022-12-07T07:20:53;100505.16;;;-8.52;57.38
63287;BME280;49410;55.708;37.522;2022-12-07T07:23:20;100527.69;;;-8.30;56.97
63287;BME280;49410;55.708;37.522;2022-12-07T07:25:46;100517.22;;;-8.37;57.13
63287;BME280;49410;55.708;37.522;2022-12-07T07:28:12;100525.75;;;-8.20;56.99
63287;BME280;49410;55.708;37.522;2022-12-07T07:30:37;100521.34;;;-8.21;56.62
63287;BME280;49410;55.708;37.522;2022-12-07T07:33:04;100517.06;;;-8.30;56.90
63287;BME280;49410;55.708;37.522;2022-12-07T07:35:31;100519.53;;;-8.20;56.78
63287;BME280;49410;55.708;37.522;2022-12-07T07:37:57;100509.81;;;-8.20;56.64
63287;BME280;49410;55.708;37.522;2022-12-07T07:40:23;100500.84;;;-8.14;56.71
63287;BME280;49410;55.708;37.522;2022-12-07T07:42:50;100490.13;;;-8.09;55.83
63287;BME280;49410;55.708;37.522;2022-12-07T07:45:17;100505.66;;;-7.91;56.41
63287;BME280;49410;55.708;37.522;2022-12-07T07:47:43;100499.56;;;-7.94;55.77
63287;BME280;49410;55.708;37.522;2022-12-07T07:50:09;100479.31;;;-8.02;56.03
63287;BME280;49410;55.708;37.522;2022-12-07T07:52:34;100487.28;;;-8.02;55.42
63287;BME280;49410;55.708;37.522;2022-12-07T07:55:00;100501.91;;;-7.82;55.88
63287;BME280;49410;55.708;37.522;2022-12-07T07:57:26;100488.94;;;-7.96;55.82
63287;BME280;49410;55.708;37.522;2022-12-07T07:59:52;100489.16;;;-8.05;55.77
63287;BME280;49410;55.708;37.522;2022-12-07T08:02:19;100492.84;;;-8.13;56.48
63287;BME280;49410;55.708;37.522;2022-12-07T08:04:45;100503.13;;;-7.97;55.56
63287;BME280;49410;55.708;37.522;2022-12-07T08:07:11;100508.28;;;-7.89;56.45
63287;BME280;49410;55.708;37.522;2022-12-07T08:09:37;100504.69;;;-7.87;55.64
63287;BME280;49410;55.708;37.522;2022-12-07T08:12:03;100484.13;;;-7.77;55.74
63287;BME280;49410;55.708;37.522;2022-12-07T08:14:30;100481.19;;;-7.65;54.52
63287;BME280;49410;55.708;37.522;2022-12-07T08:16:55;100480.44;;;-7.71;54.96
63287;BME280;49410;55.708;37.522;2022-12-07T08:19:21;100480.38;;;-7.68;55.07
63287;BME280;49410;55.708;37.522;2022-12-07T08:21:47;100486.22;;;-7.54;54.47
63287;BME280;49410;55.708;37.522;2022-12-07T08:24:13;100468.75;;;-7.64;54.61
63287;BME280;49410;55.708;37.522;2022-12-07T08:26:42;100474.63;;;-7.50;54.08
63287;BME280;49410;55.708;37.522;2022-12-07T08:29:08;100486.00;;;-7.43;54.12
63287;BME280;49410;55.708;37.522;2022-12-07T08:31:33;100491.16;;;-7.37;53.65
63287;BME280;49410;55.708;37.522;2022-12-07T08:33:59;100470.34;;;-7.57;53.86
63287;BME280;49410;55.708;37.522;2022-12-07T08:36:26;100471.56;;;-7.32;53.35
63287;BME280;49410;55.708;37.522;2022-12-07T08:38:51;100473.50;;;-7.39;53.33
63287;BME280;49410;55.708;37.522;2022-12-07T08:41:17;100489.97;;;-7.23;53.03
63287;BME280;49410;55.708;37.522;2022-12-07T08:43:43;100469.66;;;-7.27;53.07
63287;BME280;49410;55.708;37.522;2022-12-07T08:46:12;100482.63;;;-7.13;52.48
63287;BME280;49410;55.708;37.522;2022-12-07T08:49:03;100455.59;;;-7.31;52.32
63287;BME280;49410;55.708;37.522;2022-12-07T08:51:30;100460.91;;;-7.31;51.93
63287;BME280;49410;55.708;37.522;2022-12-07T08:53:57;100466.31;;;-6.99;52.11
63287;BME280;49410;55.708;37.522;2022-12-07T08:56:24;100457.59;;;-7.05;52.28
63287;BME280;49410;55.708;37.522;2022-12-07T08:58:50;100471.59;;;-6.98;52.19
63287;BME280;49410;55.708;37.522;2022-12-07T09:01:16;100449.97;;;-7.19;51.67
63287;BME280;49410;55.708;37.522;2022-12-07T09:03:41;100453.97;;;-7.02;51.17
63287;BME280;49410;55.708;37.522;2022-12-07T09:06:07;100450.88;;;-6.87;51.03
63287;BME280;49410;55.708;37.522;2022-12-07T09:08:36;100447.28;;;-6.84;50.79
63287;BME280;49410;55.708;37.522;2022-12-07T09:11:03;100456.84;;;-6.77;50.95
63287;BME280;49410;55.708;37.522;2022-12-07T09:13:28;100465.50;;;-6.68;50.17
63287;BME280;49410;55.708;37.522;2022-12-07T09:15:54;100439.97;;;-6.76;50.62
63287;BME280;49410;55.708;37.522;2022-12-07T09:18:19;100449.53;;;-6.68;50.73
63287;BME280;49410;55.708;37.522;2022-12-07T09:20:45;100437.69;;;-6.57;50.81
63287;BME280;49410;55.708;37.522;2022-12-07T09:23:10;100452.63;;;-6.52;50.40
63287;BME280;49410;55.708;37.522;2022-12-07T09:25:36;100427.94;;;-6.58;50.96
63287;BME280;49410;55.708;37.522;2022-12-07T09:28:01;100433.03;;;-6.50;50.32
63287;BME280;49410;55.708;37.522;2022-12-07T09:30:27;100432.09;;;-6.47;50.59
63287;BME280;49410;55.708;37.522;2022-12-07T09:32:54;100417.25;;;-6.56;49.66
63287;BME280;49410;55.708;37.522;2022-12-07T09:35:21;100437.38;;;-6.46;50.21
63287;BME280;49410;55.708;37.522;2022-12-07T09:37:46;100432.38;;;-6.58;48.93
63287;BME280;49410;55.708;37.522;2022-12-07T09:40:14;100426.41;;;-6.66;49.49
63287;BME280;49410;55.708;37.522;2022-12-07T09:42:43;100418.69;;;-6.76;49.19
63287;BME280;49410;55.708;37.522;2022-12-07T09:45:34;100423.16;;;-6.78;49.52
63287;BME280;49410;55.708;37.522;2022-12-07T09:47:59;100415.03;;;-6.72;50.19
63287;BME280;49410;55.708;37.522;2022-12-07T09:50:27;100413.31;;;-6.74;48.90
63287;BME280;49410;55.708;37.522;2022-12-07T09:52:55;100402.00;;;-6.82;49.21
63287;BME280;49410;55.708;37.522;2022-12-07T09:55:27;100402.19;;;-6.89;49.85
63287;BME280;49410;55.708;37.522;2022-12-07T09:58:22;100416.03;;;-6.76;50.30
63287;BME280;49410;55.708;37.522;2022-12-07T10:00:54;100413.16;;;-6.68;49.21
63287;BME280;49410;55.708;37.522;2022-12-07T10:03:20;100413.06;;;-6.65;49.66
63287;BME280;49410;55.708;37.522;2022-12-07T10:05:48;100402.72;;;-6.76;49.43
63287;BME280;49410;55.708;37.522;2022-12-07T10:08:14;100402.13;;;-6.87;50.05
63287;BME280;49410;55.708;37.522;2022-12-07T10:10:44;100391.44;;;-6.86;49.31
63287;BME280;49410;55.708;37.522;2022-12-07T10:15:55;100412.97;;;-6.93;49.59
63287;BME280;49410;55.708;37.522;2022-12-07T10:23:36;100383.06;;;-7.03;49.65
63287;BME280;49410;55.708;37.522;2022-12-07T10:31:41;100387.19;;;-7.26;49.55
63287;BME280;49410;55.708;37.522;2022-12-07T10:34:22;100379.09;;;-7.20;49.75
63287;BME280;49410;55.708;37.522;2022-12-07T10:36:50;100396.16;;;-6.95;50.11
63287;BME280;49410;55.708;37.522;2022-12-07T10:39:21;100385.78;;;-7.06;49.44
63287;BME280;49410;55.708;37.522;2022-12-07T10:44:22;100375.16;;;-7.06;50.05
63287;BME280;49410;55.708;37.522;2022-12-07T10:57:50;100326.25;;;-7.32;50.26
63287;BME280;49410;55.708;37.522;2022-12-07T11:00:22;100365.56;;;-7.12;50.49
63287;BME280;49410;55.708;37.522;2022-12-07T11:05:54;100372.28;;;-6.97;50.47
63287;BME280;49410;55.708;37.522;2022-12-07T11:13:42;100353.34;;;-7.19;51.62
63287;BME280;49410;55.708;37.522;2022-12-07T11:16:32;100334.81;;;-7.22;51.45
63287;BME280;49410;55.708;37.522;2022-12-07T11:21:59;100345.50;;;-7.24;51.35
63287;BME280;49410;55.708;37.522;2022-12-07T11:25:02;100345.69;;;-7.30;51.21
63287;BME280;49410;55.708;37.522;2022-12-07T11:27:54;100348.09;;;-7.21;51.35
63287;BME280;49410;55.708;37.522;2022-12-07T11:30:34;100331.59;;;-7.34;51.93
63287;BME280;49410;55.708;37.522;2022-12-07T11:39:28;100337.97;;;-7.39;52.77
63287;BME280;49410;55.708;37.522;2022-12-07T11:42:10;100340.50;;;-7.35;52.26
63287;BME280;49410;55.708;37.522;2022-12-07T11:44:55;100318.75;;;-7.51;52.38
63287;BME280;49410;55.708;37.522;2022-12-07T11:47:30;100307.28;;;-7.53;52.16
63287;BME280;49410;55.708;37.522;2022-12-07T11:58:33;100319.31;;;-7.72;53.50
63287;BME280;49410;55.708;37.522;2022-12-07T12:06:43;100319.50;;;-7.80;53.79
63287;BME280;49410;55.708;37.522;2022-12-07T12:09:25;100317.75;;;-7.81;53.83
63287;BME280;49410;55.708;37.522;2022-12-07T12:15:20;100318.03;;;-7.92;54.59
63287;BME280;49410;55.708;37.522;2022-12-07T12:20:50;100302.94;;;-7.90;53.98
63287;BME280;49410;55.708;37.522;2022-12-07T12:23:20;100294.25;;;-7.98;54.36
63287;BME280;49410;55.708;37.522;2022-12-07T12:25:50;100306.00;;;-8.07;54.58
63287;BME280;49410;55.708;37.522;2022-12-07T12:28:24;100286.63;;;-8.12;54.28
63287;BME280;49410;55.708;37.522;2022-12-07T12:31:14;100300.63;;;-8.04;54.38
63287;BME280;49410;55.708;37.522;2022-12-07T12:33:44;100289.28;;;-8.11;54.84
63287;BME280;49410;55.708;37.522;2022-12-07T12:46:57;100295.03;;;-8.29;55.43
63287;BME280;49410;55.708;37.522;2022-12-07T12:51:53;100284.03;;;-8.50;56.40
63287;BME280;49410;55.708;37.522;2022-12-07T12:54:23;100302.47;;;-8.47;56.94
63287;BME280;49410;55.708;37.522;2022-12-07T12:57:09;100283.78;;;-8.40;56.22
63287;BME280;49410;55.708;37.522;2022-12-07T12:59:38;100282.34;;;-8.54;56.07
63287;BME280;49410;55.708;37.522;2022-12-07T13:02:36;100286.63;;;-8.48;56.79
63287;BME280;49410;55.708;37.522;2022-12-07T13:15:44;100278.19;;;-8.67;58.05
63287;BME280;49410;55.708;37.522;2022-12-07T13:28:46;100267.03;;;-8.82;58.50
63287;BME280;49410;55.708;37.522;2022-12-07T13:33:49;100276.34;;;-8.64;58.42
63287;BME280;49410;55.708;37.522;2022-12-07T13:36:30;100259.00;;;-8.77;58.63
63287;BME280;49410;55.708;37.522;2022-12-07T13:39:15;100263.28;;;-8.73;58.25
63287;BME280;49410;55.708;37.522;2022-12-07T13:41:43;100272.91;;;-8.67;58.37
63287;BME280;49410;55.708;37.522;2022-12-07T13:44:12;100278.34;;;-8.74;58.65
63287;BME280;49410;55.708;37.522;2022-12-07T13:49:32;100280.75;;;-8.63;58.04
63287;BME280;49410;55.708;37.522;2022-12-07T13:54:44;100252.84;;;-8.79;58.22
63287;BME280;49410;55.708;37.522;2022-12-07T13:57:10;100249.50;;;-8.87;58.87
63287;BME280;49410;55.708;37.522;2022-12-07T13:59:35;100237.28;;;-8.96;59.04
63287;BME280;49410;55.708;37.522;2022-12-07T14:02:27;100250.50;;;-8.93;59.08
63287;BME280;49410;55.708;37.522;2022-12-07T14:05:12;100246.16;;;-8.97;58.93
63287;BME280;49410;55.708;37.522;2022-12-07T14:10:39;100251.69;;;-9.10;59.21
63287;BME280;49410;55.708;37.522;2022-12-07T14:15:53;100249.66;;;-8.95;58.71
63287;BME280;49410;55.708;37.522;2022-12-07T14:18:45;100263.56;;;-8.84;58.78
63287;BME280;49410;55.708;37.522;2022-12-07T14:23:38;100242.38;;;-8.87;58.35
63287;BME280;49410;55.708;37.522;2022-12-07T14:26:14;100244.13;;;-8.86;58.83
63287;BME280;49410;55.708;37.522;2022-12-07T14:28:41;100249.28;;;-8.80;57.82
63287;BME280;49410;55.708;37.522;2022-12-07T14:31:13;100256.28;;;-8.76;58.27
63287;BME280;49410;55.708;37.522;2022-12-07T14:33:39;100240.84;;;-8.97;58.99
63287;BME280;49410;55.708;37.522;2022-12-07T14:36:07;100239.88;;;-8.93;59.38
63287;BME280;49410;55.708;37.522;2022-12-07T14:38:33;100265.41;;;-8.89;59.32
63287;BME280;49410;55.708;37.522;2022-12-07T14:40:59;100226.84;;;-9.02;59.46
63287;BME280;49410;55.708;37.522;2022-12-07T14:43:45;100265.41;;;-8.89;58.94
63287;BME280;49410;55.708;37.522;2022-12-07T14:46:11;100227.59;;;-8.97;58.95
63287;BME280;49410;55.708;37.522;2022-12-07T14:48:37;100252.28;;;-8.95;59.54
63287;BME280;49410;55.708;37.522;2022-12-07T14:51:03;100266.31;;;-8.90;59.53
63287;BME280;49410;55.708;37.522;2022-12-07T14:53:33;100256.69;;;-8.94;59.09
63287;BME280;49410;55.708;37.522;2022-12-07T14:56:01;100237.22;;;-8.93;59.11
63287;BME280;49410;55.708;37.522;2022-12-07T14:58:27;100248.53;;;-8.85;58.83
63287;BME280;49410;55.708;37.522;2022-12-07T15:00:52;100239.09;;;-8.98;59.69
63287;BME280;49410;55.708;37.522;2022-12-07T15:03:18;100266.94;;;-8.77;59.43
63287;BME280;49410;55.708;37.522;2022-12-07T15:05:44;100252.16;;;-8.89;59.35
63287;BME280;49410;55.708;37.522;2022-12-07T15:08:11;100257.13;;;-8.74;59.04
63287;BME280;49410;55.708;37.522;2022-12-07T15:10:37;100233.50;;;-8.84;59.65
63287;BME280;49410;55.708;37.522;2022-12-07T15:13:04;100249.50;;;-8.89;59.71